sensor_id;sensor_type;location;lat;lon;timestamp;pressure;altitude;pressure_sealevel;temperature;humidity
6899;BME280;3488;42.616;23.350;2023-06-04T00:02:16;63675.34;;;16.18;100.00
6899;BME280;3488;42.616;23.350;2023-06-04T00:04:43;63670.75;;;16.21;100.00
6899;BME280;3488;42.616;23.350;2023-06-04T00:07:10;63675.94;;;16.24;100.00
6899;BME280;3488;42.616;23.350;2023-06-04T00:09:37;63682.63;;;16.25;100.00
6899;BME280;3488;42.616;23.350;2023-06-04T00:12:04;63680.56;;;16.26;100.00
6899;BME280;3488;42.616;23.350;2023-06-04T00:14:31;63671.78;;;16.19;100.00
6899;BME280;3488;42.616;23.350;2023-06-04T00:16:58;63672.31;;;16.20;100.00
6899;BME280;3488;42.616;23.350;2023-06-04T00:19:27;63671.31;;;16.24;100.00
6899;BME280;3488;42.616;23.350;2023-06-04T00:21:54;63673.38;;;16.24;100.00
6899;BME280;3488;42.616;23.350;2023-06-04T00:24:21;63677.97;;;16.23;100.00
6899;BME280;3488;42.616;23.350;2023-06-04T00:26:48;63678.03;;;16.28;100.00
6899;BME280;3488;42.616;23.350;2023-06-04T00:29:15;63683.16;;;16.26;100.00
6899;BME280;3488;42.616;23.350;2023-06-04T00:31:42;63685.78;;;16.31;100.00
6899;BME280;3488;42.616;23.350;2023-06-04T00:34:10;63676.44;;;16.22;100.00
6899;BME280;3488;42.616;23.350;2023-06-04T00:36:39;63667.09;;;16.15;100.00
6899;BME280;3488;42.616;23.350;2023-06-04T00:39:06;63674.81;;;16.17;100.00
6899;BME280;3488;42.616;23.350;2023-06-04T00:41:33;63670.69;;;16.16;100.00
6899;BME280;3488;42.616;23.350;2023-06-04T00:44:00;63668.13;;;16.16;100.00
6899;BME280;3488;42.616;23.350;2023-06-04T00:46:28;63673.31;;;16.21;100.00
6899;BME280;3488;42.616;23.350;2023-06-04T00:48:56;63683.19;;;16.28;100.00
6899;BME280;3488;42.616;23.350;2023-06-04T00:51:26;63688.84;;;16.29;100.00
6899;BME280;3488;42.616;23.350;2023-06-04T00:53:54;63676.47;;;16.27;100.00
6899;BME280;3488;42.616;23.350;2023-06-04T00:56:22;63672.81;;;16.20;100.00
6899;BME280;3488;42.616;23.350;2023-06-04T00:58:49;63678.47;;;16.21;100.00
6899;BME280;3488;42.616;23.350;2023-06-04T01:01:28;63669.69;;;16.17;100.00
6899;BME280;3488;42.616;23.350;2023-06-04T01:04:00;63669.63;;;16.12;100.00
6899;BME280;3488;42.616;23.350;2023-06-04T01:06:32;63662.94;;;16.13;100.00
6899;BME280;3488;42.616;23.350;2023-06-04T01:09:02;63663.91;;;16.07;100.00
6899;BME280;3488;42.616;23.350;2023-06-04T01:11:31;63659.81;;;16.08;100.00
6899;BME280;3488;42.616;23.350;2023-06-04T01:13:58;63679.53;;;16.25;100.00
6899;BME280;3488;42.616;23.350;2023-06-04T01:16:26;63683.72;;;16.29;100.00
6899;BME280;3488;42.616;23.350;2023-06-04T01:18:58;63683.66;;;16.26;100.00
6899;BME280;3488;42.616;23.350;2023-06-04T01:21:29;63688.41;;;16.36;100.00
6899;BME280;3488;42.616;23.350;2023-06-04T01:23:59;63701.88;;;16.44;100.00
6899;BME280;3488;42.616;23.350;2023-06-04T01:26:31;63680.56;;;16.23;100.00
6899;BME280;3488;42.616;23.350;2023-06-04T01:28:58;63659.25;;;16.05;100.00
6899;BME280;3488;42.616;23.350;2023-06-04T01:31:28;63656.63;;;16.00;100.00
6899;BME280;3488;42.616;23.350;2023-06-04T01:33:58;63662.38;;;16.08;100.00
6899;BME280;3488;42.616;23.350;2023-06-04T01:36:25;63658.75;;;16.07;100.00
6899;BME280;3488;42.616;23.350;2023-06-04T01:38:52;63629.19;;;15.83;100.00
6899;BME280;3488;42.616;23.350;2023-06-04T01:41:20;63619.22;;;15.66;100.00
6899;BME280;3488;42.616;23.350;2023-06-04T01:43:48;63612.41;;;15.55;100.00
6899;BME280;3488;42.616;23.350;2023-06-04T01:46:15;63611.41;;;15.56;100.00
6899;BME280;3488;42.616;23.350;2023-06-04T01:48:43;63608.31;;;15.56;100.00
6899;BME280;3488;42.616;23.350;2023-06-04T01:51:10;63617.16;;;15.64;100.00
6899;BME280;3488;42.616;23.350;2023-06-04T01:53:37;63626.53;;;15.76;100.00
6899;BME280;3488;42.616;23.350;2023-06-04T01:56:04;63634.34;;;15.83;100.00
6899;BME280;3488;42.616;23.350;2023-06-04T01:58:33;63636.38;;;15.83;100.00
6899;BME280;3488;42.616;23.350;2023-06-04T02:01:02;63645.69;;;15.89;100.00
6899;BME280;3488;42.616;23.350;2023-06-04T02:03:30;63653.03;;;16.01;100.00
6899;BME280;3488;42.616;23.350;2023-06-04T02:06:06;63643.19;;;15.92;100.00
6899;BME280;3488;42.616;23.350;2023-06-04T02:08:34;63644.66;;;15.88;100.00
6899;BME280;3488;42.616;23.350;2023-06-04T02:11:01;63651.97;;;15.98;100.00
6899;BME280;3488;42.616;23.350;2023-06-04T02:13:28;63643.13;;;15.87;100.00
6899;BME280;3488;42.616;23.350;2023-06-04T02:15:55;63632.72;;;15.77;100.00
6899;BME280;3488;42.616;23.350;2023-06-04T02:18:24;63632.78;;;15.82;100.00
6899;BME280;3488;42.616;23.350;2023-06-04T02:20:51;63629.13;;;15.78;100.00
6899;BME280;3488;42.616;23.350;2023-06-04T02:23:19;63622.88;;;15.72;100.00
6899;BME280;3488;42.616;23.350;2023-06-04T02:25:46;63627.59;;;15.77;100.00
6899;BME280;3488;42.616;23.350;2023-06-04T02:28:15;63619.25;;;15.69;100.00
6899;BME280;3488;42.616;23.350;2023-06-04T02:30:43;63600.03;;;15.50;100.00
6899;BME280;3488;42.616;23.350;2023-06-04T02:33:11;63592.19;;;15.40;100.00
6899;BME280;3488;42.616;23.350;2023-06-04T02:35:40;63594.25;;;15.40;100.00
6899;BME280;3488;42.616;23.350;2023-06-04T02:38:07;63581.81;;;15.33;100.00
6899;BME280;3488;42.616;23.350;2023-06-04T02:40:34;63572.94;;;15.22;100.00
6899;BME280;3488;42.616;23.350;2023-06-04T02:43:01;63570.91;;;15.22;100.00
6899;BME280;3488;42.616;23.350;2023-06-04T02:45:30;63575.53;;;15.22;100.00
6899;BME280;3488;42.616;23.350;2023-06-04T02:47:57;63563.59;;;15.13;100.00
6899;BME280;3488;42.616;23.350;2023-06-04T02:50:24;63584.38;;;15.33;100.00
6899;BME280;3488;42.616;23.350;2023-06-04T02:52:53;63570.41;;;15.24;100.00
6899;BME280;3488;42.616;23.350;2023-06-04T02:55:19;63591.19;;;15.42;100.00
6899;BME280;3488;42.616;23.350;2023-06-04T02:57:46;63595.28;;;15.41;100.00
6899;BME280;3488;42.616;23.350;2023-06-04T03:00:14;63575.53;;;15.22;100.00
6899;BME280;3488;42.616;23.350;2023-06-04T03:02:43;63575.09;;;15.29;100.00
6899;BME280;3488;42.616;23.350;2023-06-04T03:05:12;63596.91;;;15.47;100.00
6899;BME280;3488;42.616;23.350;2023-06-04T03:07:41;63609.34;;;15.57;100.00
6899;BME280;3488;42.616;23.350;2023-06-04T03:10:12;63617.63;;;15.62;100.00
6899;BME280;3488;42.616;23.350;2023-06-04T03:12:40;63610.41;;;15.58;100.00
6899;BME280;3488;42.616;23.350;2023-06-04T03:15:08;63609.38;;;15.59;100.00
6899;BME280;3488;42.616;23.350;2023-06-04T03:17:36;63596.97;;;15.52;100.00
6899;BME280;3488;42.616;23.350;2023-06-04T03:20:04;63603.69;;;15.56;100.00
6899;BME280;3488;42.616;23.350;2023-06-04T03:22:32;63609.88;;;15.57;100.00
6899;BME280;3488;42.616;23.350;2023-06-04T03:25:00;63605.69;;;15.51;100.00
6899;BME280;3488;42.616;23.350;2023-06-04T03:27:30;63602.59;;;15.50;100.00
6899;BME280;3488;42.616;23.350;2023-06-04T03:29:58;63610.41;;;15.60;100.00
6899;BME280;3488;42.616;23.350;2023-06-04T03:32:25;63620.31;;;15.70;100.00
6899;BME280;3488;42.616;23.350;2023-06-04T03:34:52;63631.72;;;15.78;100.00
6899;BME280;3488;42.616;23.350;2023-06-04T03:37:21;63628.63;;;15.78;100.00
6899;BME280;3488;42.616;23.350;2023-06-04T03:39:48;63622.94;;;15.75;100.00
6899;BME280;3488;42.616;23.350;2023-06-04T03:42:15;63621.34;;;15.71;100.00
6899;BME280;3488;42.616;23.350;2023-06-04T03:44:46;63617.69;;;15.67;100.00
6899;BME280;3488;42.616;23.350;2023-06-04T03:47:13;63613.56;;;15.66;100.00
6899;BME280;3488;42.616;23.350;2023-06-04T03:49:40;63609.91;;;15.60;100.00
6899;BME280;3488;42.616;23.350;2023-06-04T03:52:07;63614.00;;;15.59;100.00
6899;BME280;3488;42.616;23.350;2023-06-04T03:54:34;63597.97;;;15.51;100.00
6899;BME280;3488;42.616;23.350;2023-06-04T03:57:00;63599.47;;;15.47;100.00
6899;BME280;3488;42.616;23.350;2023-06-04T03:59:28;63588.00;;;15.36;100.00
6899;BME280;3488;42.616;23.350;2023-06-04T04:01:57;63595.34;;;15.46;100.00
6899;BME280;3488;42.616;23.350;2023-06-04T04:04:24;63609.34;;;15.57;100.00
6899;BME280;3488;42.616;23.350;2023-06-04T04:06:51;63618.69;;;15.66;100.00
6899;BME280;3488;42.616;23.350;2023-06-04T04:09:18;63619.75;;;15.67;100.00
6899;BME280;3488;42.616;23.350;2023-06-04T04:11:45;63625.50;;;15.75;100.00
6899;BME280;3488;42.616;23.350;2023-06-04T04:14:12;63631.22;;;15.80;100.00
6899;BME280;3488;42.616;23.350;2023-06-04T04:16:39;63653.44;;;15.92;100.00
6899;BME280;3488;42.616;23.350;2023-06-04T04:19:07;63646.22;;;15.90;100.00
6899;BME280;3488;42.616;23.350;2023-06-04T04:21:36;63657.22;;;16.05;100.00
6899;BME280;3488;42.616;23.350;2023-06-04T04:24:04;63664.97;;;16.08;100.00
6899;BME280;3488;42.616;23.350;2023-06-04T04:26:31;63650.47;;;16.01;100.00
6899;BME280;3488;42.616;23.350;2023-06-04T04:28:58;63663.41;;;16.09;100.00
6899;BME280;3488;42.616;23.350;2023-06-04T04:31:26;63665.53;;;16.13;100.00
6899;BME280;3488;42.616;23.350;2023-06-04T04:33:55;63686.81;;;16.32;100.00
6899;BME280;3488;42.616;23.350;2023-06-04T04:36:24;63678.56;;;16.29;100.00
6899;BME280;3488;42.616;23.350;2023-06-04T04:38:51;63692.56;;;16.40;100.00
6899;BME280;3488;42.616;23.350;2023-06-04T04:41:20;63709.19;;;16.53;100.00
6899;BME280;3488;42.616;23.350;2023-06-04T04:43:48;63724.34;;;16.70;100.00
6899;BME280;3488;42.616;23.350;2023-06-04T04:46:15;63737.31;;;16.80;100.00
6899;BME280;3488;42.616;23.350;2023-06-04T04:48:42;63741.97;;;16.85;100.00
6899;BME280;3488;42.616;23.350;2023-06-04T04:51:09;63759.72;;;17.04;100.00
6899;BME280;3488;42.616;23.350;2023-06-04T04:53:37;63761.75;;;17.01;100.00
6899;BME280;3488;42.616;23.350;2023-06-04T04:56:04;63774.78;;;17.16;100.00
6899;BME280;3488;42.616;23.350;2023-06-04T04:58:31;63808.69;;;17.54;100.00
6899;BME280;3488;42.616;23.350;2023-06-04T05:00:58;63835.22;;;17.77;100.00
6899;BME280;3488;42.616;23.350;2023-06-04T05:03:25;63858.63;;;17.97;100.00
6899;BME280;3488;42.616;23.350;2023-06-04T05:05:52;63889.88;;;18.27;100.00
6899;BME280;3488;42.616;23.350;2023-06-04T05:08:19;63901.91;;;18.41;100.00
6899;BME280;3488;42.616;23.350;2023-06-04T05:10:48;63918.56;;;18.58;100.00
6899;BME280;3488;42.616;23.350;2023-06-04T05:13:15;63947.72;;;18.83;100.00
6899;BME280;3488;42.616;23.350;2023-06-04T05:15:43;63951.91;;;18.87;100.00
6899;BME280;3488;42.616;23.350;2023-06-04T05:18:10;63961.31;;;18.99;100.00
6899;BME280;3488;42.616;23.350;2023-06-04T05:20:37;63982.16;;;19.19;100.00
6899;BME280;3488;42.616;23.350;2023-06-04T05:23:04;63964.47;;;19.04;100.00
6899;BME280;3488;42.616;23.350;2023-06-04T05:25:32;63963.88;;;18.99;100.00
6899;BME280;3488;42.616;23.350;2023-06-04T05:28:00;63960.75;;;18.96;100.00
6899;BME280;3488;42.616;23.350;2023-06-04T05:30:27;63941.50;;;18.80;100.00
6899;BME280;3488;42.616;23.350;2023-06-04T05:32:54;63920.66;;;18.60;100.00
6899;BME280;3488;42.616;23.350;2023-06-04T05:35:21;63933.69;;;18.72;100.00
6899;BME280;3488;42.616;23.350;2023-06-04T05:37:48;63944.13;;;18.85;100.00
6899;BME280;3488;42.616;23.350;2023-06-04T05:40:19;63953.94;;;18.84;100.00
6899;BME280;3488;42.616;23.350;2023-06-04T05:42:46;63936.75;;;18.70;100.00
6899;BME280;3488;42.616;23.350;2023-06-04T05:45:16;63948.25;;;18.84;100.00
6899;BME280;3488;42.616;23.350;2023-06-04T05:47:43;63966.47;;;18.99;100.00
6899;BME280;3488;42.616;23.350;2023-06-04T05:50:10;63978.53;;;19.15;100.00
6899;BME280;3488;42.616;23.350;2023-06-04T05:52:37;64003.53;;;19.37;100.00
6899;BME280;3488;42.616;23.350;2023-06-04T05:55:05;64020.22;;;19.53;100.00
6899;BME280;3488;42.616;23.350;2023-06-04T05:57:33;64022.81;;;19.55;100.00
6899;BME280;3488;42.616;23.350;2023-06-04T06:00:01;64028.59;;;19.64;100.00
6899;BME280;3488;42.616;23.350;2023-06-04T06:02:31;63997.78;;;19.31;100.00
6899;BME280;3488;42.616;23.350;2023-06-04T06:05:00;63995.78;;;19.34;100.00
6899;BME280;3488;42.616;23.350;2023-06-04T06:07:27;64001.44;;;19.32;100.00
6899;BME280;3488;42.616;23.350;2023-06-04T06:09:54;63998.34;;;19.34;100.00
6899;BME280;3488;42.616;23.350;2023-06-04T06:12:21;63999.41;;;19.38;100.00
6899;BME280;3488;42.616;23.350;2023-06-04T06:14:49;63999.88;;;19.33;100.00
6899;BME280;3488;42.616;23.350;2023-06-04T06:17:16;63986.31;;;19.20;100.00
6899;BME280;3488;42.616;23.350;2023-06-04T06:19:45;63991.00;;;19.25;100.00
6899;BME280;3488;42.616;23.350;2023-06-04T06:22:12;63981.66;;;19.18;100.00
6899;BME280;3488;42.616;23.350;2023-06-04T06:24:39;63982.69;;;19.19;100.00
6899;BME280;3488;42.616;23.350;2023-06-04T06:27:06;63989.53;;;19.31;100.00
6899;BME280;3488;42.616;23.350;2023-06-04T06:29:34;64021.28;;;19.57;100.00
6899;BME280;3488;42.616;23.350;2023-06-04T06:32:01;64052.56;;;19.84;100.00
6899;BME280;3488;42.616;23.350;2023-06-04T06:34:28;64083.38;;;20.16;100.00
6899;BME280;3488;42.616;23.350;2023-06-04T06:36:57;64107.34;;;20.37;100.00
6899;BME280;3488;42.616;23.350;2023-06-04T06:39:24;64127.22;;;20.58;100.00
6899;BME280;3488;42.616;23.350;2023-06-04T06:41:51;64156.94;;;20.85;99.49
6899;BME280;3488;42.616;23.350;2023-06-04T06:44:18;64129.28;;;20.58;98.77
6899;BME280;3488;42.616;23.350;2023-06-04T06:46:45;64124.56;;;20.51;99.69
6899;BME280;3488;42.616;23.350;2023-06-04T06:49:14;64115.69;;;20.42;100.00
6899;BME280;3488;42.616;23.350;2023-06-04T06:51:42;64117.81;;;20.49;100.00
6899;BME280;3488;42.616;23.350;2023-06-04T06:54:10;64070.28;;;20.01;100.00
6899;BME280;3488;42.616;23.350;2023-06-04T06:56:38;64090.63;;;20.18;100.00
6899;BME280;3488;42.616;23.350;2023-06-04T06:59:04;64108.91;;;20.36;100.00
6899;BME280;3488;42.616;23.350;2023-06-04T07:01:32;64093.31;;;20.26;100.00
6899;BME280;3488;42.616;23.350;2023-06-04T07:03:59;64092.25;;;20.25;100.00
6899;BME280;3488;42.616;23.350;2023-06-04T07:06:26;64107.91;;;20.40;100.00
6899;BME280;3488;42.616;23.350;2023-06-04T07:08:53;64134.44;;;20.58;99.87
6899;BME280;3488;42.616;23.350;2023-06-04T07:11:22;64139.75;;;20.71;98.64
6899;BME280;3488;42.616;23.350;2023-06-04T07:13:49;64135.56;;;20.66;100.00
6899;BME280;3488;42.616;23.350;2023-06-04T07:16:16;64147.56;;;20.78;98.19
6899;BME280;3488;42.616;23.350;2023-06-04T07:18:47;64167.41;;;20.97;97.94
6899;BME280;3488;42.616;23.350;2023-06-04T07:21:15;64158.00;;;20.88;98.75
6899;BME280;3488;42.616;23.350;2023-06-04T07:23:42;64168.97;;;20.99;99.42
6899;BME280;3488;42.616;23.350;2023-06-04T07:26:11;64188.78;;;21.13;96.62
6899;BME280;3488;42.616;23.350;2023-06-04T07:28:39;64203.94;;;21.30;97.49
6899;BME280;3488;42.616;23.350;2023-06-04T07:31:06;64228.00;;;21.55;94.83
6899;BME280;3488;42.616;23.350;2023-06-04T07:33:33;64217.00;;;21.42;93.12
6899;BME280;3488;42.616;23.350;2023-06-04T07:36:00;64239.97;;;21.64;93.32
6899;BME280;3488;42.616;23.350;2023-06-04T07:38:27;64278.19;;;22.04;92.15
6899;BME280;3488;42.616;23.350;2023-06-04T07:40:55;64315.84;;;22.45;89.03
6899;BME280;3488;42.616;23.350;2023-06-04T07:43:21;64348.19;;;22.66;86.76
6899;BME280;3488;42.616;23.350;2023-06-04T07:45:50;64384.81;;;23.04;86.09
6899;BME280;3488;42.616;23.350;2023-06-04T07:48:18;64421.41;;;23.34;83.03
6899;BME280;3488;42.616;23.350;2023-06-04T07:50:46;64421.97;;;23.39;81.17
6899;BME280;3488;42.616;23.350;2023-06-04T07:53:13;64424.63;;;23.47;78.69
6899;BME280;3488;42.616;23.350;2023-06-04T07:55:40;64420.94;;;23.43;80.24
6899;BME280;3488;42.616;23.350;2023-06-04T07:58:07;64419.34;;;23.39;80.64
6899;BME280;3488;42.616;23.350;2023-06-04T08:00:34;64435.53;;;23.50;79.59
6899;BME280;3488;42.616;23.350;2023-06-04T08:03:03;64455.97;;;23.74;78.32
6899;BME280;3488;42.616;23.350;2023-06-04T08:05:30;64467.97;;;23.81;78.20
6899;BME280;3488;42.616;23.350;2023-06-04T08:07:57;64488.44;;;24.08;72.61
6899;BME280;3488;42.616;23.350;2023-06-04T08:10:24;64493.13;;;24.08;69.62
6899;BME280;3488;42.616;23.350;2023-06-04T08:12:51;64460.16;;;23.76;70.11
6899;BME280;3488;42.616;23.350;2023-06-04T08:15:18;64466.41;;;23.82;69.68
6899;BME280;3488;42.616;23.350;2023-06-04T08:17:45;64472.19;;;23.90;70.38
6899;BME280;3488;42.616;23.350;2023-06-04T08:20:13;64439.22;;;23.56;71.94
6899;BME280;3488;42.616;23.350;2023-06-04T08:22:40;64492.63;;;24.07;69.69
6899;BME280;3488;42.616;23.350;2023-06-04T08:25:08;64526.63;;;24.40;66.32
6899;BME280;3488;42.616;23.350;2023-06-04T08:27:36;64557.50;;;24.67;65.08
6899;BME280;3488;42.616;23.350;2023-06-04T08:30:04;64593.13;;;25.01;62.62
6899;BME280;3488;42.616;23.350;2023-06-04T08:32:31;64609.38;;;25.19;62.21
6899;BME280;3488;42.616;23.350;2023-06-04T08:34:59;64580.06;;;24.91;64.03
6899;BME280;3488;42.616;23.350;2023-06-04T08:37:28;64606.25;;;25.16;63.10
6899;BME280;3488;42.616;23.350;2023-06-04T08:39:55;64625.06;;;25.32;62.40
6899;BME280;3488;42.616;23.350;2023-06-04T08:42:24;64598.94;;;25.14;61.86
6899;BME280;3488;42.616;23.350;2023-06-04T08:44:54;64582.69;;;25.01;61.08
6899;BME280;3488;42.616;23.350;2023-06-04T08:47:24;64569.59;;;24.81;60.63
6899;BME280;3488;42.616;23.350;2023-06-04T08:49:51;64560.09;;;24.67;59.97
6899;BME280;3488;42.616;23.350;2023-06-04T08:52:19;64570.09;;;24.79;58.97
6899;BME280;3488;42.616;23.350;2023-06-04T08:54:50;64584.25;;;24.97;58.07
6899;BME280;3488;42.616;23.350;2023-06-04T08:57:22;64618.81;;;25.28;57.11
6899;BME280;3488;42.616;23.350;2023-06-04T08:59:50;64628.75;;;25.35;56.97
6899;BME280;3488;42.616;23.350;2023-06-04T09:02:17;64640.81;;;25.49;56.21
6899;BME280;3488;42.616;23.350;2023-06-04T09:04:44;64628.25;;;25.37;54.58
6899;BME280;3488;42.616;23.350;2023-06-04T09:07:13;64626.19;;;25.38;53.81
6899;BME280;3488;42.616;23.350;2023-06-04T09:09:41;64569.06;;;24.85;56.23
6899;BME280;3488;42.616;23.350;2023-06-04T09:12:16;64591.59;;;25.04;55.83
6899;BME280;3488;42.616;23.350;2023-06-04T09:14:45;64563.84;;;24.78;54.64
6899;BME280;3488;42.616;23.350;2023-06-04T09:17:12;64575.31;;;24.84;54.95
6899;BME280;3488;42.616;23.350;2023-06-04T09:19:38;64551.25;;;24.66;56.30
6899;BME280;3488;42.616;23.350;2023-06-04T09:22:05;64518.78;;;24.35;57.51
6899;BME280;3488;42.616;23.350;2023-06-04T09:24:40;64530.31;;;24.43;58.53
6899;BME280;3488;42.616;23.350;2023-06-04T09:27:12;64536.59;;;24.52;59.11
6899;BME280;3488;42.616;23.350;2023-06-04T09:29:39;64563.81;;;24.75;57.89
6899;BME280;3488;42.616;23.350;2023-06-04T09:32:06;64510.88;;;24.20;59.52
6899;BME280;3488;42.616;23.350;2023-06-04T09:34:33;64545.47;;;24.58;59.56
6899;BME280;3488;42.616;23.350;2023-06-04T09:37:02;64574.31;;;24.90;58.17
6899;BME280;3488;42.616;23.350;2023-06-04T09:39:30;64615.13;;;25.22;56.17
6899;BME280;3488;42.616;23.350;2023-06-04T09:41:58;64640.81;;;25.49;55.70
6899;BME280;3488;42.616;23.350;2023-06-04T09:44:27;64682.22;;;25.86;55.21
6899;BME280;3488;42.616;23.350;2023-06-04T09:46:55;64683.81;;;25.93;54.68
6899;BME280;3488;42.616;23.350;2023-06-04T09:49:22;64700.59;;;26.06;53.96
6899;BME280;3488;42.616;23.350;2023-06-04T09:51:49;64723.66;;;26.29;53.40
6899;BME280;3488;42.616;23.350;2023-06-04T09:54:17;64715.78;;;26.18;53.32
6899;BME280;3488;42.616;23.350;2023-06-04T09:56:44;64706.34;;;26.09;52.47
6899;BME280;3488;42.616;23.350;2023-06-04T09:59:13;64635.59;;;25.44;54.23
6899;BME280;3488;42.616;23.350;2023-06-04T10:01:43;64607.78;;;25.15;56.12
6899;BME280;3488;42.616;23.350;2023-06-04T10:04:13;64635.59;;;25.44;57.24
6899;BME280;3488;42.616;23.350;2023-06-04T10:06:42;64681.19;;;25.90;56.78
6899;BME280;3488;42.616;23.350;2023-06-04T10:09:09;64723.13;;;26.28;54.80
6899;BME280;3488;42.616;23.350;2023-06-04T10:11:40;64687.47;;;25.91;53.20
6899;BME280;3488;42.616;23.350;2023-06-04T10:14:18;64656.00;;;25.61;53.83
6899;BME280;3488;42.616;23.350;2023-06-04T10:16:48;64617.25;;;25.29;54.78
6899;BME280;3488;42.616;23.350;2023-06-04T10:19:18;64585.81;;;24.96;55.93
6899;BME280;3488;42.616;23.350;2023-06-04T10:21:46;64595.25;;;25.05;57.14
6899;BME280;3488;42.616;23.350;2023-06-04T10:24:14;64615.66;;;25.23;55.43
6899;BME280;3488;42.616;23.350;2023-06-04T10:26:42;64604.16;;;25.14;57.13
6899;BME280;3488;42.616;23.350;2023-06-04T10:29:10;64624.09;;;25.38;54.54
6899;BME280;3488;42.616;23.350;2023-06-04T10:31:38;64663.84;;;25.66;52.93
6899;BME280;3488;42.616;23.350;2023-06-04T10:34:08;64700.59;;;26.04;53.14
6899;BME280;3488;42.616;23.350;2023-06-04T10:36:43;64685.41;;;25.99;52.06
6899;BME280;3488;42.616;23.350;2023-06-04T10:39:10;64711.59;;;26.17;51.83
6899;BME280;3488;42.616;23.350;2023-06-04T10:41:37;64718.41;;;26.23;50.85
6899;BME280;3488;42.616;23.350;2023-06-04T10:44:05;64741.47;;;26.46;51.02
6899;BME280;3488;42.616;23.350;2023-06-04T10:46:40;64759.81;;;26.58;50.84
6899;BME280;3488;42.616;23.350;2023-06-04T10:49:10;64796.53;;;26.96;50.87
6899;BME280;3488;42.616;23.350;2023-06-04T10:51:37;64771.91;;;26.75;51.25
6899;BME280;3488;42.616;23.350;2023-06-04T10:54:04;64774.00;;;26.79;49.44
6899;BME280;3488;42.616;23.350;2023-06-04T10:56:32;64724.16;;;26.27;49.26
6899;BME280;3488;42.616;23.350;2023-06-04T10:59:01;64743.59;;;26.50;50.51
6899;BME280;3488;42.616;23.350;2023-06-04T11:01:39;64772.44;;;26.78;50.86
6899;BME280;3488;42.616;23.350;2023-06-04T11:04:06;64722.63;;;26.33;51.08
6899;BME280;3488;42.616;23.350;2023-06-04T11:06:35;64775.06;;;26.78;49.76
6899;BME280;3488;42.616;23.350;2023-06-04T11:09:03;64766.66;;;26.70;50.10
6899;BME280;3488;42.616;23.350;2023-06-04T11:11:32;64764.03;;;26.70;49.62
6899;BME280;3488;42.616;23.350;2023-06-04T11:14:07;64736.22;;;26.38;51.27
6899;BME280;3488;42.616;23.350;2023-06-04T11:16:37;64745.66;;;26.45;50.66
6899;BME280;3488;42.616;23.350;2023-06-04T11:19:05;64735.69;;;26.38;51.40
6899;BME280;3488;42.616;23.350;2023-06-04T11:21:35;64677.00;;;25.86;50.83
6899;BME280;3488;42.616;23.350;2023-06-04T11:24:04;64642.94;;;25.51;52.23
6899;BME280;3488;42.616;23.350;2023-06-04T11:26:32;64624.56;;;25.34;53.89
6899;BME280;3488;42.616;23.350;2023-06-04T11:29:00;64600.47;;;25.08;53.86
6899;BME280;3488;42.616;23.350;2023-06-04T11:31:27;64616.19;;;25.26;56.17
6899;BME280;3488;42.616;23.350;2023-06-04T11:33:54;64625.63;;;25.35;55.59
6899;BME280;3488;42.616;23.350;2023-06-04T11:36:25;64653.41;;;25.61;54.04
6899;BME280;3488;42.616;23.350;2023-06-04T11:38:59;64636.66;;;25.45;53.88
6899;BME280;3488;42.616;23.350;2023-06-04T11:41:27;64609.41;;;25.24;53.75
6899;BME280;3488;42.616;23.350;2023-06-04T11:43:55;64597.84;;;25.08;54.52
6899;BME280;3488;42.616;23.350;2023-06-04T11:46:23;64581.63;;;24.90;54.92
6899;BME280;3488;42.616;23.350;2023-06-04T11:48:51;64509.88;;;24.24;59.42
6899;BME280;3488;42.616;23.350;2023-06-04T11:51:19;64536.03;;;24.46;57.82
6899;BME280;3488;42.616;23.350;2023-06-04T11:53:47;64548.63;;;24.63;56.29
6899;BME280;3488;42.616;23.350;2023-06-04T11:56:17;64542.88;;;24.60;58.51
6899;BME280;3488;42.616;23.350;2023-06-04T11:58:44;64526.59;;;24.35;59.42
6899;BME280;3488;42.616;23.350;2023-06-04T12:01:12;64490.53;;;24.05;59.74
6899;BME280;3488;42.616;23.350;2023-06-04T12:03:41;64480.03;;;23.97;60.69
6899;BME280;3488;42.616;23.350;2023-06-04T12:06:13;64470.09;;;23.85;60.57
6899;BME280;3488;42.616;23.350;2023-06-04T12:08:47;64431.91;;;23.51;64.52
6899;BME280;3488;42.616;23.350;2023-06-04T12:11:30;64440.81;;;23.60;64.94
6899;BME280;3488;42.616;23.350;2023-06-04T12:13:59;64450.75;;;23.72;61.44
6899;BME280;3488;42.616;23.350;2023-06-04T12:16:27;64445.00;;;23.64;61.21
6899;BME280;3488;42.616;23.350;2023-06-04T12:19:05;64441.78;;;23.51;62.09
6899;BME280;3488;42.616;23.350;2023-06-04T12:21:32;64424.56;;;23.39;64.16
6899;BME280;3488;42.616;23.350;2023-06-04T12:24:07;64397.88;;;23.16;65.65
6899;BME280;3488;42.616;23.350;2023-06-04T12:26:36;64361.81;;;22.84;66.44
6899;BME280;3488;42.616;23.350;2023-06-04T12:29:09;64344.00;;;22.62;67.95
6899;BME280;3488;42.616;23.350;2023-06-04T12:31:37;64307.38;;;22.27;71.49
6899;BME280;3488;42.616;23.350;2023-06-04T12:34:04;64291.78;;;22.19;71.76
6899;BME280;3488;42.616;23.350;2023-06-04T12:36:32;64270.81;;;21.92;73.92
6899;BME280;3488;42.616;23.350;2023-06-04T12:39:02;64218.56;;;21.44;78.36
6899;BME280;3488;42.616;23.350;2023-06-04T12:41:32;64190.88;;;21.15;80.50
6899;BME280;3488;42.616;23.350;2023-06-04T12:44:01;64187.25;;;21.14;81.98
6899;BME280;3488;42.616;23.350;2023-06-04T12:46:28;64186.72;;;21.13;85.19
6899;BME280;3488;42.616;23.350;2023-06-04T12:48:55;64179.91;;;21.02;86.75
6899;BME280;3488;42.616;23.350;2023-06-04T12:51:22;64164.28;;;20.94;87.03
6899;BME280;3488;42.616;23.350;2023-06-04T12:53:50;64175.16;;;20.97;87.88
6899;BME280;3488;42.616;23.350;2023-06-04T12:56:18;64185.16;;;21.14;83.13
6899;BME280;3488;42.616;23.350;2023-06-04T12:58:45;64195.09;;;21.24;81.31
6899;BME280;3488;42.616;23.350;2023-06-04T13:01:15;64224.88;;;21.55;80.03
6899;BME280;3488;42.616;23.350;2023-06-04T13:03:42;64233.16;;;21.55;78.70
6899;BME280;3488;42.616;23.350;2023-06-04T13:06:10;64251.44;;;21.70;78.56
6899;BME280;3488;42.616;23.350;2023-06-04T13:08:37;64259.34;;;21.83;75.87
6899;BME280;3488;42.616;23.350;2023-06-04T13:11:04;64254.59;;;21.76;73.03